createdAt,value
2019-01-24T00:00:24.715Z,1026.17
2019-01-24T00:03:54.779Z,1026.55
2019-01-24T00:07:24.984Z,1026.51
2019-01-24T00:10:55.019Z,1026.29
2019-01-24T00:14:25.054Z,1026.24
2019-01-24T00:17:55.071Z,1026.09
2019-01-24T00:21:25.203Z,1025.95
2019-01-24T00:24:55.267Z,1025.59
2019-01-24T00:28:25.453Z,1025.33
2019-01-24T00:31:55.567Z,1024.93
2019-01-24T00:35:25.611Z,1024.53
2019-01-24T00:38:55.756Z,1024.64
2019-01-24T00:42:25.942Z,1024.63
2019-01-24T00:46:11.165Z,1024.63
2019-01-24T00:49:41.206Z,1024.58
2019-01-24T00:53:11.275Z,1024.65
2019-01-24T00:56:41.359Z,1024.74
2019-01-24T01:00:14.738Z,1024.9
2019-01-24T01:03:44.848Z,1025.31
2019-01-24T01:07:14.903Z,1025.49
2019-01-24T01:10:45.102Z,1025.19
2019-01-24T01:14:15.082Z,1025.03
2019-01-24T01:17:45.887Z,1024.93
2019-01-24T01:21:16.102Z,1024.93
2019-01-24T01:24:46.268Z,1025.04
2019-01-24T01:28:16.287Z,1024.81
2019-01-24T01:31:46.475Z,1024.04
2019-01-24T01:35:16.641Z,1023.4
2019-01-24T01:38:46.597Z,1022.85
2019-01-24T01:42:17.659Z,1022.51
2019-01-24T01:45:47.753Z,1022.1
2019-01-24T01:49:17.830Z,1021.72
2019-01-24T01:52:48.073Z,1021.75
2019-01-24T01:56:18.148Z,1021.79
2019-01-24T01:59:48.189Z,1021.78
2019-01-24T02:00:18.435Z,1021.75
2019-01-24T02:03:48.385Z,1021.82
2019-01-24T02:07:18.405Z,1022.01
2019-01-24T02:10:48.436Z,1022.13
2019-01-24T02:14:18.611Z,1022.2
2019-01-24T02:17:48.726Z,1022.27
2019-01-24T02:21:18.816Z,1022.33
2019-01-24T02:24:48.888Z,1022.42
2019-01-24T02:28:19.151Z,1022.28
2019-01-24T02:31:49.208Z,1022.1
2019-01-24T02:35:19.498Z,1021.98
2019-01-24T02:38:49.505Z,1021.98
2019-01-24T02:42:20.527Z,1021.76
2019-01-24T02:45:50.567Z,1021.66
2019-01-24T02:49:20.622Z,1021.77
2019-01-24T02:52:50.785Z,1021.82
2019-01-24T02:56:20.830Z,1021.91
2019-01-24T02:59:50.847Z,1022.3
2019-01-24T03:03:20.968Z,1022.59
2019-01-24T03:06:51.063Z,1022.78
2019-01-24T03:10:21.298Z,1022.91
2019-01-24T03:13:51.323Z,1022.94
2019-01-24T03:17:21.387Z,1023.09
2019-01-24T03:20:51.522Z,1023.07
2019-01-24T03:24:21.746Z,1023.5
2019-01-24T03:27:51.802Z,1023.67
2019-01-24T03:31:21.895Z,1023.64
2019-01-24T03:34:51.891Z,1023.94
2019-01-24T03:38:21.989Z,1024.13
2019-01-24T03:41:52.056Z,1023.91
2019-01-24T03:45:22.259Z,1023.95
2019-01-24T03:48:52.502Z,1023.71
2019-01-24T03:52:22.649Z,1022.99
2019-01-24T03:55:52.719Z,1022.99
2019-01-24T03:59:23.004Z,1023.22
2019-01-24T04:00:18.510Z,1022.97
2019-01-24T04:03:48.838Z,1023.03
2019-01-24T04:07:18.825Z,1022.79
2019-01-24T04:10:48.919Z,1022.7
2019-01-24T04:14:19.131Z,1022.9
2019-01-24T04:17:49.257Z,1022.59
2019-01-24T04:21:19.312Z,1022.19
2019-01-24T04:24:49.250Z,1022.33
2019-01-24T04:28:19.395Z,1022.12
2019-01-24T04:31:49.474Z,1022.31
2019-01-24T04:35:20.455Z,1022.4
2019-01-24T04:38:50.690Z,1022.39
2019-01-24T04:42:20.710Z,1022.47
2019-01-24T04:45:51.941Z,1022.09
2019-01-24T04:49:21.970Z,1022.35
2019-01-24T04:52:52.128Z,1022.75
2019-01-24T04:56:22.205Z,1022.75
2019-01-24T04:59:52.357Z,1022.41
2019-01-24T05:03:22.347Z,1022.57
2019-01-24T05:06:52.434Z,1022.78
2019-01-24T05:10:22.511Z,1022.93
2019-01-24T05:13:52.565Z,1023.05
2019-01-24T05:17:23.490Z,1023.29
2019-01-24T05:20:53.559Z,1023.32
2019-01-24T05:24:23.550Z,1023.27
2019-01-24T05:27:53.621Z,1023.32
2019-01-24T05:31:23.851Z,1023.24
2019-01-24T05:34:53.892Z,1023.14
2019-01-24T05:38:23.910Z,1023.26
2019-01-24T05:41:53.903Z,1023.36
2019-01-24T05:45:24.088Z,1023.39
2019-01-24T05:48:55.209Z,1023.38
2019-01-24T05:52:25.279Z,1023.34
2019-01-24T05:55:55.270Z,1023.81
2019-01-24T05:59:25.323Z,1024.08
2019-01-24T06:00:20.620Z,1024.24
2019-01-24T06:03:50.731Z,1024.79
2019-01-24T06:07:20.951Z,1025.53
2019-01-24T06:10:50.942Z,1025.88
2019-01-24T06:14:21.055Z,1026.29
2019-01-24T06:17:51.098Z,1026.64
2019-01-24T06:21:28.300Z,1025.96
2019-01-24T06:24:58.207Z,1027.71
2019-01-24T06:28:28.245Z,1029.57
2019-01-24T06:31:21.615Z,1030.74
2019-01-24T06:34:51.606Z,1030.56
2019-01-24T06:38:21.656Z,1030.45
2019-01-24T06:41:51.738Z,1030.27
2019-01-24T06:45:21.953Z,1030.29
2019-01-24T06:48:52.031Z,1030.46
2019-01-24T06:52:22.260Z,1030.32
2019-01-24T06:55:52.361Z,1030.36
2019-01-24T06:59:22.339Z,1030.37
2019-01-24T07:02:52.367Z,1030.63
2019-01-24T07:06:22.589Z,1030.9
2019-01-24T07:09:52.564Z,1031.26
2019-01-24T07:13:22.493Z,1031.56
2019-01-24T07:16:52.574Z,1031.72
2019-01-24T07:20:22.629Z,1032.18
2019-01-24T07:23:52.778Z,1032.6
2019-01-24T07:27:22.866Z,1032.94
2019-01-24T07:30:52.955Z,1032.9
2019-01-24T07:34:23.023Z,1033.42
2019-01-24T07:37:53.152Z,1033.2
2019-01-24T07:41:23.231Z,1033.19
2019-01-24T07:44:53.198Z,1033.46
2019-01-24T07:48:23.248Z,1033.04
2019-01-24T07:51:53.298Z,1032.6
2019-01-24T07:55:24.319Z,1032.24
2019-01-24T07:58:54.362Z,1031.78
2019-01-24T08:00:19.778Z,1031.68
2019-01-24T08:03:49.928Z,1031.32
2019-01-24T08:07:20.005Z,1031.14
2019-01-24T08:10:50.053Z,1030.92
2019-01-24T08:14:20.112Z,1030.29
2019-01-24T08:17:50.262Z,1030.33
2019-01-24T08:21:20.379Z,1029.93
2019-01-24T08:24:50.478Z,1030.21
2019-01-24T08:28:20.616Z,1029.78
2019-01-24T08:31:50.805Z,1029.96
2019-01-24T08:35:21.094Z,1030.21
2019-01-24T08:38:51.192Z,1030.04
2019-01-24T08:42:21.584Z,1030.27
2019-01-24T08:45:51.799Z,1030.43
2019-01-24T08:49:21.928Z,1030.26
2019-01-24T08:52:52.146Z,1030.53
2019-01-24T08:56:23.205Z,1030.62
2019-01-24T08:59:53.234Z,1030.84
2019-01-24T09:03:23.428Z,1030.85
2019-01-24T09:06:53.613Z,1031
2019-01-24T09:10:27.639Z,1031.66
2019-01-24T09:13:57.732Z,1032.38
2019-01-24T09:17:27.856Z,1033.15
2019-01-24T09:20:57.975Z,1034.06
2019-01-24T09:24:28.037Z,1033.91
2019-01-24T09:27:58.153Z,1033.54
2019-01-24T09:31:28.241Z,1033.43
2019-01-24T09:34:58.210Z,1033.67
2019-01-24T09:38:28.268Z,1034.01
2019-01-24T09:41:58.317Z,1034.37
2019-01-24T09:45:28.546Z,1034.33
2019-01-24T09:48:58.588Z,1034.96
2019-01-24T09:52:28.752Z,1035.12
2019-01-24T09:55:58.871Z,1034.57
2019-01-24T09:59:29.030Z,1034.53
2019-01-24T10:00:22.373Z,1034.58
2019-01-24T10:03:52.411Z,1034.6
2019-01-24T10:07:22.529Z,1034.83
2019-01-24T10:10:52.582Z,1035.19
2019-01-24T10:14:22.727Z,1035.86
2019-01-24T10:17:52.848Z,1036.62
2019-01-24T10:21:23.014Z,1037.07
2019-01-24T10:24:53.103Z,1037.05
2019-01-24T10:28:23.222Z,1037.5
2019-01-24T10:31:53.240Z,1037.63
2019-01-24T10:35:23.549Z,1037.52
2019-01-24T10:38:53.595Z,1037.7
2019-01-24T10:42:23.758Z,1037.48
2019-01-24T10:45:53.744Z,1037.14
2019-01-24T10:49:23.813Z,1036.83
2019-01-24T10:52:54.056Z,1036.89
2019-01-24T10:56:24.171Z,1036.92
2019-01-24T10:59:55.258Z,1036.87
2019-01-24T11:03:25.388Z,1036.83
2019-01-24T11:06:55.490Z,1037.23
2019-01-24T11:10:25.716Z,1037.41
2019-01-24T11:13:55.804Z,1037.74
2019-01-24T11:17:25.910Z,1038.03
2019-01-24T11:20:56.011Z,1038.46
2019-01-24T11:24:26.115Z,1038.83
2019-01-24T11:27:56.218Z,1038.7
2019-01-24T11:31:26.247Z,1038.72
2019-01-24T11:34:56.367Z,1038.73
2019-01-24T11:38:26.485Z,1038.5
2019-01-24T11:41:56.494Z,1038.13
2019-01-24T11:45:29.492Z,1037.71
2019-01-24T11:48:59.530Z,1037.39
2019-01-24T11:52:29.635Z,1037.2
2019-01-24T11:55:59.719Z,1037.24
2019-01-24T11:59:29.869Z,1037.1
2019-01-24T12:00:21.069Z,1037.11
2019-01-24T12:03:51.187Z,1036.66
2019-01-24T12:07:21.386Z,1036.12
2019-01-24T12:10:51.425Z,1035.78
2019-01-24T12:14:21.574Z,1035.34
2019-01-24T12:17:51.666Z,1035.06
2019-01-24T12:21:21.871Z,1034.61
2019-01-24T12:24:52.010Z,1034.55
2019-01-24T12:28:22.088Z,1034.28
2019-01-24T12:31:52.147Z,1034.06
2019-01-24T12:35:22.345Z,1033.62
2019-01-24T12:38:52.445Z,1033.54
2019-01-24T12:42:22.533Z,1033.46
2019-01-24T12:45:52.473Z,1033.47
2019-01-24T12:49:22.682Z,1033.43
2019-01-24T12:52:52.889Z,1033.27
2019-01-24T12:56:23.058Z,1033.21
2019-01-24T12:59:53.207Z,1032.9
2019-01-24T13:03:23.438Z,1033.12
2019-01-24T13:06:53.533Z,1033.22
2019-01-24T13:10:24.662Z,1033.21
2019-01-24T13:13:54.761Z,1033.15
2019-01-24T13:17:24.899Z,1032.66
2019-01-24T13:20:55.038Z,1032.87
2019-01-24T13:24:25.107Z,1032.82
2019-01-24T13:27:55.186Z,1032.73
2019-01-24T13:31:25.274Z,1032.66
2019-01-24T13:34:55.383Z,1032.57
2019-01-24T13:38:25.582Z,1032.38
2019-01-24T13:41:55.679Z,1031.96
2019-01-24T13:45:28.748Z,1031.79
2019-01-24T13:48:58.907Z,1031.01
2019-01-24T13:52:28.940Z,1030.24
2019-01-24T13:55:58.975Z,1029.71
2019-01-24T13:59:29.052Z,1029.32
2019-01-24T14:00:19.275Z,1029.23
2019-01-24T14:03:56.257Z,1028.86
2019-01-24T14:07:32.822Z,1028.62
2019-01-24T14:11:03.326Z,1028.18
2019-01-24T14:14:33.471Z,1027.82
2019-01-24T14:18:04.599Z,1027.82
2019-01-24T14:21:34.737Z,1027.36
2019-01-24T14:25:07.606Z,1027.37
2019-01-24T14:28:37.675Z,1027.41
2019-01-24T14:32:07.873Z,1027.45
2019-01-24T14:35:38.071Z,1027.66
2019-01-24T14:39:08.940Z,1028.08
2019-01-24T14:42:38.999Z,1028.32
2019-01-24T14:46:09.067Z,1028.59
2019-01-24T14:49:39.106Z,1028.75
2019-01-24T14:53:09.195Z,1028.81
2019-01-24T14:56:39.353Z,1028.9
2019-01-24T15:00:29.389Z,1029.22
2019-01-24T15:04:00.491Z,1029.44
2019-01-24T15:07:30.519Z,1029.4
2019-01-24T15:11:00.572Z,1029.2
2019-01-24T15:14:30.581Z,1029.24
2019-01-24T15:18:00.798Z,1028.79
2019-01-24T15:21:30.964Z,1028.44
2019-01-24T15:25:01.088Z,1027.89
2019-01-24T15:28:31.234Z,1027.69
2019-01-24T15:32:01.343Z,1027.42
2019-01-24T15:35:31.379Z,1027.29
2019-01-24T15:39:01.491Z,1027.25
2019-01-24T15:42:31.492Z,1027.17
2019-01-24T15:46:01.705Z,1026.84
2019-01-24T15:49:31.758Z,1026.76
2019-01-24T15:53:01.861Z,1026.21
2019-01-24T15:56:31.911Z,1026.03
2019-01-24T16:00:21.427Z,1025.35
2019-01-24T16:03:51.490Z,1025.07
2019-01-24T16:07:23.386Z,1024.95
2019-01-24T16:10:53.453Z,1024.22
2019-01-24T16:14:23.563Z,1023.92
2019-01-24T16:17:53.702Z,1023.32
2019-01-24T16:21:23.851Z,1022.76
2019-01-24T16:24:53.851Z,1022.66
2019-01-24T16:28:24.763Z,1022.48
2019-01-24T16:31:55.049Z,1022.21
2019-01-24T16:35:25.534Z,1022.31
2019-01-24T16:38:55.563Z,1022.28
2019-01-24T16:42:25.513Z,1022.16
2019-01-24T16:45:55.540Z,1022.01
2019-01-24T16:49:25.620Z,1021.83
2019-01-24T16:52:55.691Z,1021.51
2019-01-24T16:56:25.872Z,1020.73
2019-01-24T17:00:09.972Z,1020.57
2019-01-24T17:03:40.081Z,1020.3
2019-01-24T17:07:10.152Z,1020.11
2019-01-24T17:10:41.173Z,1019.45
2019-01-24T17:14:11.267Z,1019.45
2019-01-24T17:17:41.369Z,1019.43
2019-01-24T17:21:11.324Z,1019.9
2019-01-24T17:24:41.573Z,1019.98
2019-01-24T17:28:11.561Z,1020.01
2019-01-24T17:31:41.701Z,1019.91
2019-01-24T17:35:11.912Z,1019.51
2019-01-24T17:38:42.163Z,1019.28
2019-01-24T17:42:12.249Z,1018.81
2019-01-24T17:45:42.285Z,1018.26
2019-01-24T17:49:12.345Z,1018.38
2019-01-24T17:52:42.555Z,1018.65
2019-01-24T17:56:12.624Z,1018.77
2019-01-24T17:59:42.744Z,1018.49
2019-01-24T18:00:19.585Z,1018.27
2019-01-24T18:03:49.613Z,1018.24
2019-01-24T18:07:19.753Z,1017.58
2019-01-24T18:10:50.782Z,1017.36
2019-01-24T18:14:20.802Z,1017.23
2019-01-24T18:17:51.254Z,1017.21
2019-01-24T18:21:21.330Z,1016.62
2019-01-24T18:24:51.411Z,1016.53
2019-01-24T18:28:21.413Z,1016.95
2019-01-24T18:31:51.460Z,1017.25
2019-01-24T18:35:22.106Z,1017.47
2019-01-24T18:38:52.178Z,1018.05
2019-01-24T18:42:22.290Z,1018.46
2019-01-24T18:45:54.576Z,1018.55
2019-01-24T18:49:24.664Z,1018.51
2019-01-24T18:52:54.740Z,1018.6
2019-01-24T18:56:24.719Z,1017.89
2019-01-24T18:59:54.756Z,1017.42
2019-01-24T19:03:24.749Z,1016.84
2019-01-24T19:06:54.756Z,1016.33
2019-01-24T19:10:24.980Z,1015.7
2019-01-24T19:13:56.028Z,1015.3
2019-01-24T19:17:26.108Z,1014.98
2019-01-24T19:20:56.140Z,1014.53
2019-01-24T19:24:26.179Z,1014.43
2019-01-24T19:27:56.297Z,1014.19
2019-01-24T19:31:26.308Z,1013.76
2019-01-24T19:34:56.433Z,1013.58
2019-01-24T19:38:26.513Z,1013.52
2019-01-24T19:41:56.562Z,1013.34
2019-01-24T19:45:26.650Z,1013.16
2019-01-24T19:48:56.659Z,1013.05
2019-01-24T19:52:26.777Z,1012.75
2019-01-24T19:55:56.866Z,1012.53
2019-01-24T19:59:27.010Z,1012.27
2019-01-24T20:00:19.927Z,1012.35
2019-01-24T20:03:50.065Z,1012.23
2019-01-24T20:07:20.148Z,1012.11
2019-01-24T20:10:50.201Z,1011.69
2019-01-24T20:14:21.337Z,1011.54
2019-01-24T20:17:51.500Z,1011.74
2019-01-24T20:21:21.576Z,1011.74
2019-01-24T20:24:51.731Z,1011.77
2019-01-24T20:28:21.868Z,1011.6
2019-01-24T20:31:52.008Z,1011.71
2019-01-24T20:35:25.451Z,1011.49
2019-01-24T20:38:55.623Z,1011.44
2019-01-24T20:42:25.939Z,1011.52
2019-01-24T20:45:56.149Z,1011.4
2019-01-24T20:49:26.202Z,1011.4
2019-01-24T20:52:56.174Z,1011.25
2019-01-24T20:56:26.497Z,1011.56
2019-01-24T20:59:56.612Z,1011.52
2019-01-24T21:03:26.754Z,1011.43
2019-01-24T21:06:56.862Z,1011.36
2019-01-24T21:10:27.023Z,1011.53
2019-01-24T21:13:57.062Z,1011.58
2019-01-24T21:17:28.086Z,1011.56
2019-01-24T21:20:58.212Z,1011.31
2019-01-24T21:24:28.431Z,1011.58
2019-01-24T21:27:58.382Z,1011.52
2019-01-24T21:31:28.484Z,1011.39
2019-01-24T21:34:58.498Z,1011.33
2019-01-24T21:38:28.602Z,1011.45
2019-01-24T21:41:58.662Z,1011.6
2019-01-24T21:45:30.452Z,1011.65
2019-01-24T21:49:00.542Z,1011.55
2019-01-24T21:52:30.758Z,1011.61
2019-01-24T21:56:00.932Z,1011.91
2019-01-24T21:59:31.017Z,1012.06
2019-01-24T22:00:19.292Z,1012.13
2019-01-24T22:03:49.322Z,1012.28
2019-01-24T22:07:19.432Z,1012.23
2019-01-24T22:10:49.502Z,1012.45
2019-01-24T22:14:19.622Z,1012.53
2019-01-24T22:17:50.603Z,1012.51
2019-01-24T22:21:20.792Z,1012.55
2019-01-24T22:24:50.833Z,1012.62
2019-01-24T22:28:20.934Z,1012.7
2019-01-24T22:31:50.924Z,1012.72
2019-01-24T22:35:20.962Z,1012.6
2019-01-24T22:38:51.162Z,1012.47
2019-01-24T22:42:21.344Z,1012.65
2019-01-24T22:45:51.349Z,1012.52
2019-01-24T22:49:21.380Z,1012.87
2019-01-24T22:52:51.380Z,1013.12
2019-01-24T22:56:21.502Z,1012.94
2019-01-24T22:59:51.612Z,1013.23
2019-01-24T23:03:25.512Z,1013.27
2019-01-24T23:06:55.559Z,1013.21
2019-01-24T23:10:25.663Z,1013.39
2019-01-24T23:13:55.752Z,1013.39
2019-01-24T23:17:25.893Z,1013.27
2019-01-24T23:20:57.014Z,1013.52
2019-01-24T23:24:27.156Z,1013.08
2019-01-24T23:27:57.142Z,1013.37
2019-01-24T23:31:27.271Z,1013.11
2019-01-24T23:34:57.205Z,1013.11
2019-01-24T23:38:27.203Z,1013.25
2019-01-24T23:41:57.463Z,1013.42
2019-01-24T23:45:27.643Z,1013.37
2019-01-24T23:48:57.783Z,1013.47
2019-01-24T23:52:27.914Z,1013.7
2019-01-24T23:55:57.969Z,1013.68
2019-01-24T23:59:29.701Z,1014.29
